Time;durP1;ratioP1;P1;durP2;ratioP2;P2;SDS_P1;SDS_P2;PMS_P1;PMS_P2;Temp;Humidity;BMP_temperature;BMP_pressure;BME280_temperature;BME280_humidity;BME280_pressure;Samples;Min_cycle;Max_cycle;Signal;HPM_P1;HPM_P2
2022/11/07 00:01:15;;;;;;;38.90;23.65;;;;;;;;;;1746409;80;21777;-52
2022/11/07 00:03:41;;;;;;;36.35;23.07;;;;;;;;;;1781541;78;21003;-52
2022/11/07 00:06:07;;;;;;;37.58;24.27;;;;;;;;;;1777809;78;21549;-52
2022/11/07 00:08:34;;;;;;;41.80;25.27;;;;;;;;;;1749103;80;21576;-52
2022/11/07 00:11:00;;;;;;;36.13;23.00;;;;;;;;;;1734741;80;20977;-53
2022/11/07 00:13:28;;;;;;;36.60;22.93;;;;;;;;;;1747638;81;21609;-52
2022/11/07 00:15:58;;;;;;;34.53;23.22;;;;;;;;;;1749700;80;21487;-52
2022/11/07 00:18:25;;;;;;;35.98;21.60;;;;;;;;;;1783596;78;20985;-53
2022/11/07 00:20:52;;;;;;;33.95;22.20;;;;;;;;;;1743467;80;21045;-52
2022/11/07 00:23:20;;;;;;;32.63;21.60;;;;;;;;;;1751055;80;20978;-52
2022/11/07 00:25:47;;;;;;;39.27;22.60;;;;;;;;;;1748678;80;21770;-52
2022/11/07 00:28:13;;;;;;;34.80;22.65;;;;;;;;;;1772486;79;21095;-52
2022/11/07 00:30:39;;;;;;;38.78;22.65;;;;;;;;;;1773053;78;21174;-52
2022/11/07 00:33:07;;;;;;;34.80;21.80;;;;;;;;;;1745717;80;21079;-52
2022/11/07 00:35:33;;;;;;;38.73;23.00;;;;;;;;;;1730205;81;21661;-52
2022/11/07 00:38:01;;;;;;;37.80;23.02;;;;;;;;;;1778725;78;21033;-52
2022/11/07 00:40:28;;;;;;;34.53;22.22;;;;;;;;;;1773565;79;21080;-53
2022/11/07 00:42:55;;;;;;;36.90;24.18;;;;;;;;;;1769610;79;21160;-52
2022/11/07 00:45:22;;;;;;;38.95;23.50;;;;;;;;;;1760613;80;21234;-52
2022/11/07 00:47:48;;;;;;;29.87;20.60;;;;;;;;;;1779729;78;21048;-52
2022/11/07 00:50:14;;;;;;;37.70;23.80;;;;;;;;;;1745916;80;21850;-52
2022/11/07 00:52:41;;;;;;;34.95;22.60;;;;;;;;;;1778603;79;22232;-52
2022/11/07 00:55:09;;;;;;;33.60;21.50;;;;;;;;;;1782400;79;21494;-52
2022/11/07 00:57:36;;;;;;;37.38;22.27;;;;;;;;;;1777241;79;21422;-52
2022/11/07 01:00:04;;;;;;;37.13;22.05;;;;;;;;;;1781296;79;21041;-52
2022/11/07 01:02:30;;;;;;;35.95;22.80;;;;;;;;;;1777677;78;21822;-53
2022/11/07 01:05:09;;;;;;;35.78;22.75;;;;;;;;;;1776728;78;21538;-52
2022/11/07 01:07:35;;;;;;;33.10;21.97;;;;;;;;;;1753352;80;21104;-53
2022/11/07 01:10:05;;;;;;;35.38;21.62;;;;;;;;;;1755275;80;21123;-52
2022/11/07 01:12:35;;;;;;;33.55;21.40;;;;;;;;;;1769496;79;21087;-52
2022/11/07 01:15:02;;;;;;;31.90;22.48;;;;;;;;;;1780479;79;21828;-52
2022/11/07 01:17:29;;;;;;;34.33;21.07;;;;;;;;;;1773081;78;21638;-52
2022/11/07 01:19:55;;;;;;;34.78;21.70;;;;;;;;;;1742725;80;21050;-52
2022/11/07 01:22:21;;;;;;;32.40;20.90;;;;;;;;;;1749126;80;21062;-52
2022/11/07 01:24:48;;;;;;;33.42;21.97;;;;;;;;;;1744682;81;21049;-52
2022/11/07 01:27:14;;;;;;;36.85;21.60;;;;;;;;;;1757002;80;21837;-52
2022/11/07 01:29:40;;;;;;;30.48;20.80;;;;;;;;;;1750723;80;21918;-52
2022/11/07 01:32:06;;;;;;;34.08;22.58;;;;;;;;;;1746497;81;21084;-52
2022/11/07 01:34:32;;;;;;;33.00;22.00;;;;;;;;;;1751416;80;21074;-52
2022/11/07 01:36:58;;;;;;;31.70;21.45;;;;;;;;;;1784443;79;21056;-52
2022/11/07 01:39:24;;;;;;;34.23;22.13;;;;;;;;;;1744041;81;21814;-52
2022/11/07 01:41:52;;;;;;;33.55;20.00;;;;;;;;;;1773614;79;21061;-52
2022/11/07 01:44:22;;;;;;;31.40;21.05;;;;;;;;;;1766112;79;22156;-52
2022/11/07 01:46:49;;;;;;;29.25;20.40;;;;;;;;;;1741594;81;21303;-52
2022/11/07 01:49:18;;;;;;;31.70;20.85;;;;;;;;;;1765035;80;21073;-52
2022/11/07 01:52:04;;;;;;;33.13;21.60;;;;;;;;;;1747162;80;21840;-52
2022/11/07 01:54:42;;;;;;;33.25;21.37;;;;;;;;;;1766101;79;20999;-53
2022/11/07 01:57:11;;;;;;;30.30;19.95;;;;;;;;;;1726024;80;21057;-53
2022/11/07 01:59:37;;;;;;;32.73;20.60;;;;;;;;;;1785629;78;21052;-53
2022/11/07 02:02:04;;;;;;;34.03;22.07;;;;;;;;;;1784413;78;21041;-53
2022/11/07 02:04:30;;;;;;;38.95;22.40;;;;;;;;;;1754437;80;21831;-53
2022/11/07 02:07:05;;;;;;;27.65;19.90;;;;;;;;;;1753917;78;21463;-53
2022/11/07 02:09:32;;;;;;;33.45;22.10;;;;;;;;;;1753534;80;21044;-53
2022/11/07 02:11:59;;;;;;;32.48;21.20;;;;;;;;;;1783870;79;21066;-53
2022/11/07 02:14:27;;;;;;;30.55;20.95;;;;;;;;;;1781992;79;21036;-53
2022/11/07 02:16:53;;;;;;;31.75;19.85;;;;;;;;;;1782623;79;21844;-52
2022/11/07 02:19:24;;;;;;;33.28;21.62;;;;;;;;;;1780127;78;21570;-52
2022/11/07 02:22:12;;;;;;;29.87;20.57;;;;;;;;;;1784620;79;22193;-52
2022/11/07 02:24:38;;;;;;;34.58;23.15;;;;;;;;;;1778305;80;21522;-52
2022/11/07 02:27:11;;;;;;;31.77;21.97;;;;;;;;;;1785220;80;21038;-52
2022/11/07 02:29:37;;;;;;;31.48;21.37;;;;;;;;;;1783510;79;21761;-52
2022/11/07 02:32:08;;;;;;;28.40;20.62;;;;;;;;;;1783769;79;21547;-52
2022/11/07 02:34:36;;;;;;;35.48;22.35;;;;;;;;;;1786284;80;21124;-52
2022/11/07 02:37:05;;;;;;;27.25;19.70;;;;;;;;;;1785708;79;21052;-52
2022/11/07 02:39:33;;;;;;;31.05;21.87;;;;;;;;;;1754406;80;21003;-52
2022/11/07 02:41:59;;;;;;;33.08;22.20;;;;;;;;;;1752406;80;21869;-53
2022/11/07 02:44:25;;;;;;;31.25;20.48;;;;;;;;;;1785152;78;20962;-52
2022/11/07 02:46:52;;;;;;;34.60;22.45;;;;;;;;;;1787130;78;20976;-52
2022/11/07 02:49:18;;;;;;;35.58;22.42;;;;;;;;;;1764175;80;21058;-52
2022/11/07 02:51:44;;;;;;;30.40;21.30;;;;;;;;;;1784375;80;21021;-52
2022/11/07 02:54:10;;;;;;;30.15;20.15;;;;;;;;;;1783465;80;21790;-52
2022/11/07 02:56:36;;;;;;;29.32;20.32;;;;;;;;;;1779484;78;21042;-52
2022/11/07 02:59:03;;;;;;;33.95;23.40;;;;;;;;;;1781502;80;21469;-52
2022/11/07 03:01:29;;;;;;;33.70;21.17;;;;;;;;;;1784022;79;21041;-51
2022/11/07 03:03:55;;;;;;;30.05;21.17;;;;;;;;;;1783716;78;20990;-52
2022/11/07 03:06:23;;;;;;;33.63;21.00;;;;;;;;;;1780654;80;22778;-51
2022/11/07 03:08:49;;;;;;;32.13;21.52;;;;;;;;;;1768988;80;21420;-52
2022/11/07 03:11:18;;;;;;;33.05;20.88;;;;;;;;;;1781912;78;21000;-50
2022/11/07 03:13:46;;;;;;;32.67;19.55;;;;;;;;;;1754226;80;21010;-52
2022/11/07 03:16:13;;;;;;;27.48;20.37;;;;;;;;;;1748734;80;20969;-52
2022/11/07 03:18:39;;;;;;;29.10;20.32;;;;;;;;;;1779797;78;21877;-52
2022/11/07 03:21:06;;;;;;;33.73;21.90;;;;;;;;;;1780936;79;20963;-52
2022/11/07 03:23:32;;;;;;;33.02;22.15;;;;;;;;;;1779435;78;20974;-52
2022/11/07 03:25:59;;;;;;;31.87;21.37;;;;;;;;;;1784307;79;21045;-52
2022/11/07 03:28:26;;;;;;;30.08;20.68;;;;;;;;;;1776551;79;21625;-51
2022/11/07 03:30:52;;;;;;;28.67;19.95;;;;;;;;;;1781861;79;21835;-52
2022/11/07 03:33:20;;;;;;;27.95;20.17;;;;;;;;;;1782480;78;21076;-52
2022/11/07 03:35:46;;;;;;;26.68;18.48;;;;;;;;;;1772952;78;21645;-52
2022/11/07 03:38:13;;;;;;;25.75;19.42;;;;;;;;;;1780013;78;21056;-50
2022/11/07 03:40:39;;;;;;;27.80;20.50;;;;;;;;;;1746851;80;21144;-51
2022/11/07 03:43:05;;;;;;;27.85;20.52;;;;;;;;;;1749472;80;22607;-52
2022/11/07 03:45:31;;;;;;;33.18;20.15;;;;;;;;;;1751308;80;21068;-51
2022/11/07 03:47:59;;;;;;;27.62;19.52;;;;;;;;;;1744977;81;21047;-52
2022/11/07 03:50:25;;;;;;;28.55;19.92;;;;;;;;;;1765166;80;21096;-52
2022/11/07 03:52:52;;;;;;;31.10;18.62;;;;;;;;;;1779086;79;21727;-52
2022/11/07 03:55:18;;;;;;;28.35;20.97;;;;;;;;;;1779534;78;21306;-52
2022/11/07 03:57:44;;;;;;;27.87;19.73;;;;;;;;;;1771350;79;21013;-52
2022/11/07 04:00:12;;;;;;;25.57;19.17;;;;;;;;;;1741657;80;21061;-52
2022/11/07 04:02:38;;;;;;;24.77;19.55;;;;;;;;;;1739648;80;22560;-52
2022/11/07 04:05:05;;;;;;;27.60;18.67;;;;;;;;;;1749782;80;21045;-52
2022/11/07 04:07:32;;;;;;;25.12;18.80;;;;;;;;;;1775192;79;21926;-53
2022/11/07 04:09:59;;;;;;;25.25;18.65;;;;;;;;;;1774251;78;21045;-52
2022/11/07 04:17:54;;;;;;;24.02;17.00;;;;;;;;;;1770451;79;21052;-52
2022/11/07 04:20:20;;;;;;;27.75;19.20;;;;;;;;;;1748165;80;22510;-52
2022/11/07 04:22:47;;;;;;;23.70;17.17;;;;;;;;;;1738242;81;21574;-52
2022/11/07 04:25:14;;;;;;;27.67;18.27;;;;;;;;;;1768670;80;21053;-51
2022/11/07 04:27:43;;;;;;;27.60;17.92;;;;;;;;;;1779161;79;21364;-52
2022/11/07 04:30:20;;;;;;;25.15;17.50;;;;;;;;;;1772506;78;21023;-53
2022/11/07 04:32:49;;;;;;;25.55;16.95;;;;;;;;;;1772796;78;21894;-53
2022/11/07 04:35:17;;;;;;;21.52;16.82;;;;;;;;;;1775792;78;21088;-51
2022/11/07 04:37:43;;;;;;;20.37;15.48;;;;;;;;;;1776295;79;21068;-51
2022/11/07 04:40:09;;;;;;;22.22;16.48;;;;;;;;;;1776202;79;22397;-51
2022/11/07 04:42:35;;;;;;;22.65;16.42;;;;;;;;;;1772509;79;21345;-52
2022/11/07 04:45:03;;;;;;;18.77;15.35;;;;;;;;;;1777147;79;22122;-52
2022/11/07 04:47:29;;;;;;;17.30;14.63;;;;;;;;;;1772226;79;21479;-52
2022/11/07 04:49:55;;;;;;;18.82;15.75;;;;;;;;;;1773355;79;21173;-52
2022/11/07 04:52:21;;;;;;;22.17;16.30;;;;;;;;;;1772789;79;21064;-51
2022/11/07 04:54:48;;;;;;;19.52;15.83;;;;;;;;;;1774715;78;21364;-52
2022/11/07 04:57:14;;;;;;;22.65;16.00;;;;;;;;;;1741253;80;21818;-52
2022/11/07 04:59:40;;;;;;;21.80;15.60;;;;;;;;;;1758114;80;21361;-51
2022/11/07 05:02:10;;;;;;;18.90;15.13;;;;;;;;;;1746848;80;21044;-51
2022/11/07 05:04:37;;;;;;;20.95;15.63;;;;;;;;;;1748481;80;21591;-52
2022/11/07 05:07:03;;;;;;;23.38;15.10;;;;;;;;;;1746995;80;21053;-52
2022/11/07 05:09:30;;;;;;;26.25;18.73;;;;;;;;;;1746051;80;21833;-52
2022/11/07 05:11:56;;;;;;;20.92;15.68;;;;;;;;;;1745742;80;21250;-50
2022/11/07 05:14:24;;;;;;;26.20;19.60;;;;;;;;;;1749364;80;21032;-51
2022/11/07 05:16:50;;;;;;;20.15;15.58;;;;;;;;;;1737788;80;21519;-52
2022/11/07 05:19:17;;;;;;;23.05;15.30;;;;;;;;;;1695403;80;21054;-51
2022/11/07 05:21:44;;;;;;;19.05;16.60;;;;;;;;;;1777376;79;21835;-53
2022/11/07 05:24:10;;;;;;;20.00;13.87;;;;;;;;;;1773806;79;21076;-52
2022/11/07 05:26:38;;;;;;;20.35;15.28;;;;;;;;;;1773587;79;21050;-52
2022/11/07 05:29:05;;;;;;;21.73;15.70;;;;;;;;;;1773933;79;21208;-52
2022/11/07 05:31:32;;;;;;;18.42;13.45;;;;;;;;;;1776457;79;21481;-52
2022/11/07 05:33:58;;;;;;;17.25;13.13;;;;;;;;;;1777610;79;21782;-52
2022/11/07 05:36:24;;;;;;;17.23;14.65;;;;;;;;;;1774218;79;21044;-51
2022/11/07 05:38:51;;;;;;;14.38;11.68;;;;;;;;;;1774161;79;21636;-51
2022/11/07 05:41:19;;;;;;;17.50;13.55;;;;;;;;;;1776020;79;21594;-52
2022/11/07 05:43:45;;;;;;;16.85;13.83;;;;;;;;;;1777228;79;21524;-51
2022/11/07 05:46:13;;;;;;;18.45;14.43;;;;;;;;;;1775874;79;22810;-51
2022/11/07 05:48:39;;;;;;;17.55;13.68;;;;;;;;;;1775047;79;21034;-52
2022/11/07 05:51:05;;;;;;;16.32;13.48;;;;;;;;;;1780838;79;20986;-51
2022/11/07 05:53:32;;;;;;;16.75;13.80;;;;;;;;;;1782560;79;21041;-52
2022/11/07 05:55:58;;;;;;;21.20;15.55;;;;;;;;;;1775928;79;21097;-51
2022/11/07 05:58:24;;;;;;;20.55;16.73;;;;;;;;;;1780188;79;21839;-51
2022/11/07 06:00:51;;;;;;;19.82;17.45;;;;;;;;;;1779020;79;21512;-50
2022/11/07 06:03:21;;;;;;;30.45;26.12;;;;;;;;;;1780875;79;21041;-51
2022/11/07 06:05:47;;;;;;;26.42;19.45;;;;;;;;;;1752271;80;21096;-51
2022/11/07 06:08:13;;;;;;;28.40;22.20;;;;;;;;;;1743056;80;21064;-50
2022/11/07 06:10:41;;;;;;;26.33;18.40;;;;;;;;;;1745878;80;23037;-51
2022/11/07 06:13:10;;;;;;;47.98;33.30;;;;;;;;;;1750780;80;21460;-51
2022/11/07 06:15:38;;;;;;;27.35;21.82;;;;;;;;;;1749983;80;20996;-51
2022/11/07 06:18:06;;;;;;;28.47;20.88;;;;;;;;;;1753586;80;21034;-52
2022/11/07 06:20:33;;;;;;;27.55;18.82;;;;;;;;;;1782557;78;21102;-52
2022/11/07 06:23:01;;;;;;;29.82;24.60;;;;;;;;;;1780798;79;21888;-51
2022/11/07 06:37:26;;;;;;;13.83;12.37;;;;;;;;;;1859812;75;22540;-52
2022/11/07 06:39:53;;;;;;;14.47;11.88;;;;;;;;;;1790532;78;21131;-52
2022/11/07 06:42:19;;;;;;;14.60;13.13;;;;;;;;;;1784226;78;21970;-52
2022/11/07 06:44:45;;;;;;;16.30;11.55;;;;;;;;;;1764781;79;21143;-52
2022/11/07 06:47:11;;;;;;;13.70;11.68;;;;;;;;;;1791571;78;21527;-52
2022/11/07 06:49:37;;;;;;;15.00;12.40;;;;;;;;;;1793070;78;21056;-52
2022/11/07 06:52:04;;;;;;;16.52;13.53;;;;;;;;;;1791061;78;21278;-52
2022/11/07 06:54:30;;;;;;;15.40;11.80;;;;;;;;;;1814359;77;21806;-52
2022/11/07 06:56:56;;;;;;;16.57;12.00;;;;;;;;;;1816179;77;21433;-52
2022/11/07 06:59:22;;;;;;;12.60;10.45;;;;;;;;;;1817202;77;21493;-52
2022/11/07 07:01:49;;;;;;;14.55;11.85;;;;;;;;;;1815042;77;21060;-52
2022/11/07 07:04:15;;;;;;;14.70;11.50;;;;;;;;;;1821143;77;21588;-52
2022/11/07 07:06:42;;;;;;;14.35;12.40;;;;;;;;;;1819692;77;21728;-52
2022/11/07 07:09:09;;;;;;;12.88;11.45;;;;;;;;;;1818212;77;21012;-52
2022/11/07 07:11:36;;;;;;;14.73;12.65;;;;;;;;;;1821531;77;21110;-52
2022/11/07 07:14:03;;;;;;;11.93;10.85;;;;;;;;;;1819940;77;21096;-52
2022/11/07 07:16:29;;;;;;;12.95;11.20;;;;;;;;;;1812981;77;21004;-52
2022/11/07 07:18:55;;;;;;;16.00;12.45;;;;;;;;;;1819126;77;21905;-53
2022/11/07 07:21:22;;;;;;;15.88;12.93;;;;;;;;;;1814471;77;21131;-52
2022/11/07 07:23:48;;;;;;;14.80;12.58;;;;;;;;;;1816546;77;21016;-53
2022/11/07 07:26:15;;;;;;;19.30;13.53;;;;;;;;;;1798767;77;21959;-52
2022/11/07 07:28:41;;;;;;;14.18;12.43;;;;;;;;;;1782542;78;21006;-52
2022/11/07 07:31:10;;;;;;;15.15;12.45;;;;;;;;;;1783310;78;21759;-52
2022/11/07 07:33:36;;;;;;;13.83;12.15;;;;;;;;;;1777563;78;21057;-52
2022/11/07 07:36:03;;;;;;;16.23;11.38;;;;;;;;;;1785368;78;21028;-52
2022/11/07 07:38:29;;;;;;;16.97;13.03;;;;;;;;;;1798349;78;20997;-52
2022/11/07 07:40:57;;;;;;;14.25;12.15;;;;;;;;;;1801371;78;20989;-52
2022/11/07 07:43:23;;;;;;;12.78;10.98;;;;;;;;;;1797926;78;21745;-52
2022/11/07 07:45:49;;;;;;;14.40;11.35;;;;;;;;;;1798183;78;21009;-52
2022/11/07 07:48:15;;;;;;;14.50;11.05;;;;;;;;;;1797324;78;21443;-52
2022/11/07 07:50:42;;;;;;;13.53;12.10;;;;;;;;;;1797112;78;21070;-52
2022/11/07 07:53:08;;;;;;;13.00;11.63;;;;;;;;;;1796746;78;21043;-52
2022/11/07 07:55:35;;;;;;;14.05;11.50;;;;;;;;;;1795020;78;22647;-52
2022/11/07 07:58:01;;;;;;;14.90;12.45;;;;;;;;;;1797024;78;21672;-52
2022/11/07 08:00:28;;;;;;;16.37;12.82;;;;;;;;;;1794804;77;21067;-52
2022/11/07 08:03:03;;;;;;;15.83;13.80;;;;;;;;;;1795842;78;21032;-52
2022/11/07 08:05:30;;;;;;;24.15;19.92;;;;;;;;;;1795709;78;21557;-52
2022/11/07 08:07:56;;;;;;;27.55;21.73;;;;;;;;;;1793927;78;21907;-52
2022/11/07 08:10:22;;;;;;;29.05;23.22;;;;;;;;;;1798419;78;21026;-52
2022/11/07 08:12:50;;;;;;;20.68;17.23;;;;;;;;;;1796507;78;21017;-53
2022/11/07 08:15:17;;;;;;;18.92;16.93;;;;;;;;;;1796635;78;21026;-52
2022/11/07 08:17:44;;;;;;;16.02;14.25;;;;;;;;;;1798526;78;21075;-52
2022/11/07 08:20:12;;;;;;;15.05;13.08;;;;;;;;;;1796085;78;21967;-53
2022/11/07 08:22:39;;;;;;;14.80;13.20;;;;;;;;;;1793237;78;21038;-53
2022/11/07 08:25:06;;;;;;;14.23;12.70;;;;;;;;;;1766854;78;22424;-53
2022/11/07 08:27:34;;;;;;;15.95;13.85;;;;;;;;;;1792351;78;21506;-53
2022/11/07 08:30:01;;;;;;;15.93;13.45;;;;;;;;;;1793920;78;21686;-53
2022/11/07 08:32:27;;;;;;;15.75;13.38;;;;;;;;;;1792859;78;21800;-53
2022/11/07 08:34:55;;;;;;;17.17;15.00;;;;;;;;;;1794361;78;21126;-53
2022/11/07 08:37:24;;;;;;;13.50;12.23;;;;;;;;;;1732733;78;20977;-52
2022/11/07 08:39:50;;;;;;;17.20;15.23;;;;;;;;;;1727069;78;21532;-52
2022/11/07 08:42:16;;;;;;;17.00;14.00;;;;;;;;;;1742368;78;21515;-52
2022/11/07 08:44:43;;;;;;;15.48;12.98;;;;;;;;;;1778113;78;21813;-52
2022/11/07 08:47:09;;;;;;;16.62;14.18;;;;;;;;;;1768758;79;21111;-52
2022/11/07 08:49:36;;;;;;;17.17;13.75;;;;;;;;;;1766024;79;22052;-52
2022/11/07 08:52:03;;;;;;;21.05;13.80;;;;;;;;;;1767763;79;21040;-53
2022/11/07 08:54:29;;;;;;;17.40;12.98;;;;;;;;;;1769474;79;21498;-52
2022/11/07 08:56:56;;;;;;;31.82;25.85;;;;;;;;;;1770726;79;21822;-52
2022/11/07 08:59:23;;;;;;;31.17;24.02;;;;;;;;;;1772016;79;21496;-52
2022/11/07 09:01:49;;;;;;;22.35;15.85;;;;;;;;;;1709593;81;21085;-53
2022/11/07 09:04:16;;;;;;;16.62;14.78;;;;;;;;;;1783507;78;21663;-52
2022/11/07 09:06:43;;;;;;;15.85;13.83;;;;;;;;;;1780883;78;21537;-52
2022/11/07 09:09:10;;;;;;;17.98;14.98;;;;;;;;;;1786252;78;22395;-51
2022/11/07 09:11:36;;;;;;;58.42;45.15;;;;;;;;;;1784553;78;21029;-52
2022/11/07 09:14:03;;;;;;;23.05;20.55;;;;;;;;;;1784970;78;21040;-52
2022/11/07 09:16:29;;;;;;;23.15;18.10;;;;;;;;;;1780413;78;21068;-52
2022/11/07 09:18:56;;;;;;;16.30;14.65;;;;;;;;;;1777710;78;21108;-53
2022/11/07 09:21:22;;;;;;;19.12;14.87;;;;;;;;;;1779747;78;22953;-53
2022/11/07 09:23:50;;;;;;;18.55;14.40;;;;;;;;;;1782355;78;21033;-53
2022/11/07 09:26:16;;;;;;;17.23;13.75;;;;;;;;;;1785710;78;21534;-51
2022/11/07 09:28:42;;;;;;;14.23;12.73;;;;;;;;;;1783122;78;21056;-54
2022/11/07 09:31:09;;;;;;;14.95;13.48;;;;;;;;;;1783618;78;21048;-53
2022/11/07 09:33:35;;;;;;;18.32;16.27;;;;;;;;;;1779166;78;21238;-52
2022/11/07 09:36:02;;;;;;;13.53;12.18;;;;;;;;;;1781950;78;21123;-53
2022/11/07 09:38:29;;;;;;;15.23;12.75;;;;;;;;;;1780351;78;21057;-53
2022/11/07 09:41:08;;;;;;;15.63;12.68;;;;;;;;;;1776234;78;21080;-53
2022/11/07 09:43:38;;;;;;;13.90;12.35;;;;;;;;;;1778752;78;21058;-53
2022/11/07 09:46:14;;;;;;;17.37;12.73;;;;;;;;;;1777064;78;21906;-52
2022/11/07 09:48:43;;;;;;;13.40;11.95;;;;;;;;;;1759727;79;21196;-52
2022/11/07 09:51:13;;;;;;;14.53;12.58;;;;;;;;;;1792110;78;21317;-52
2022/11/07 09:53:42;;;;;;;12.82;11.53;;;;;;;;;;1745726;80;21108;-52
2022/11/07 09:56:09;;;;;;;14.75;12.50;;;;;;;;;;1733304;81;21952;-54
2022/11/07 09:58:41;;;;;;;13.30;11.93;;;;;;;;;;1699760;81;21854;-54
2022/11/07 10:01:12;;;;;;;13.25;11.95;;;;;;;;;;1722845;80;21413;-53
2022/11/07 10:03:39;;;;;;;12.73;10.72;;;;;;;;;;1730151;81;21041;-53
2022/11/07 10:06:30;;;;;;;14.43;12.78;;;;;;;;;;1763911;79;21691;-53
2022/11/07 10:09:01;;;;;;;16.02;12.55;;;;;;;;;;1771558;79;21163;-52
2022/11/07 10:24:27;;;;;;;15.23;13.10;;;;;;;7.60;100.00;100424.24;1799846;77;22097;-51
2022/11/07 10:26:54;;;;;;;15.10;13.13;;;;;;;7.63;100.00;100434.47;1761605;79;21092;-52
2022/11/07 10:29:23;;;;;;;13.32;11.97;;;;;;;7.60;100.00;100428.27;1773615;79;22740;-53
2022/11/07 10:31:58;;;;;;;14.83;12.80;;;;;;;7.58;100.00;100420.72;1766260;79;21051;-52
2022/11/07 10:34:36;;;;;;;17.00;15.20;;;;;;;7.57;100.00;100416.77;1764774;79;21123;-52
2022/11/07 10:37:03;;;;;;;18.35;15.65;;;;;;;7.51;100.00;100401.70;1763910;79;21051;-52
2022/11/07 10:39:30;;;;;;;15.55;14.07;;;;;;;7.46;100.00;100396.94;1769307;79;21066;-52
2022/11/07 10:42:15;;;;;;;19.05;12.82;;;;;;;7.41;100.00;100393.47;1768129;79;21793;-52
2022/11/07 10:44:41;;;;;;;15.95;14.13;;;;;;;7.40;100.00;100386.35;1774747;79;21539;-51
2022/11/07 10:47:22;;;;;;;15.03;13.32;;;;;;;7.36;100.00;100383.34;1730653;81;21052;-52
2022/11/07 10:50:00;;;;;;;14.25;12.75;;;;;;;7.34;100.00;100385.63;1765208;79;21080;-52
2022/11/07 10:52:28;;;;;;;15.50;12.80;;;;;;;7.32;100.00;100388.34;1766624;79;21074;-51
2022/11/07 10:55:15;;;;;;;13.88;12.30;;;;;;;7.33;100.00;100386.55;1765726;79;22051;-52
2022/11/07 10:57:42;;;;;;;17.87;11.95;;;;;;;7.31;100.00;100387.07;1763301;79;21107;-51
2022/11/07 11:00:27;;;;;;;12.53;10.55;;;;;;;7.30;100.00;100390.66;1765655;79;21194;-52
2022/11/07 11:02:55;;;;;;;13.22;11.63;;;;;;;7.29;100.00;100387.11;1764442;79;21154;-52
2022/11/07 11:05:42;;;;;;;13.65;10.45;;;;;;;7.28;100.00;100377.30;1764733;79;22413;-51
2022/11/07 11:08:17;;;;;;;14.78;11.40;;;;;;;7.29;100.00;100383.09;1763200;79;21906;-52
2022/11/07 11:10:45;;;;;;;14.78;11.08;;;;;;;7.28;100.00;100384.45;1762203;79;21084;-52
2022/11/07 11:13:33;;;;;;;17.75;12.50;;;;;;;7.28;100.00;100381.33;1763953;79;21624;-52
2022/11/07 11:16:17;;;;;;;20.37;16.23;;;;;;;7.30;100.00;100375.48;1765755;79;21680;-51
2022/11/07 11:18:51;;;;;;;20.43;13.20;;;;;;;7.33;100.00;100379.39;1766093;79;20996;-52
2022/11/07 11:21:18;;;;;;;13.88;12.47;;;;;;;7.33;100.00;100375.38;1776353;79;21782;-51
2022/11/07 11:23:44;;;;;;;13.22;11.05;;;;;;;7.33;100.00;100374.04;1787802;78;21900;-53
2022/11/07 11:26:35;;;;;;;13.15;10.88;;;;;;;7.33;100.00;100372.70;1765085;79;21035;-52
2022/11/07 11:29:10;;;;;;;15.40;11.75;;;;;;;7.33;100.00;100370.02;1762664;79;21014;-52
2022/11/07 11:31:41;;;;;;;15.20;12.20;;;;;;;7.33;100.00;100371.82;1758564;79;21042;-52
2022/11/07 11:34:25;;;;;;;13.13;11.10;;;;;;;7.31;100.00;100373.68;1757402;80;22521;-52
2022/11/07 11:37:09;;;;;;;11.50;10.30;;;;;;;7.31;100.00;100369.66;1689567;79;21033;-51
2022/11/07 11:40:01;;;;;;;12.82;11.35;;;;;;;7.33;100.00;100366.46;1761296;79;21605;-51
2022/11/07 11:42:59;;;;;;;25.95;21.25;;;;;;;7.35;100.00;100365.52;1754613;79;21474;-52
2022/11/07 11:46:01;;;;;;;14.18;12.15;;;;;;;7.36;100.00;100354.34;1735062;80;21029;-52
2022/11/07 11:48:41;;;;;;;15.32;10.88;;;;;;;7.38;100.00;100353.40;1787929;78;21793;-52
2022/11/07 11:51:24;;;;;;;14.23;10.05;;;;;;;7.39;100.00;100352.48;1756672;80;21086;-52
2022/11/07 11:53:51;;;;;;;12.05;10.80;;;;;;;7.40;100.00;100350.69;1755806;80;22236;-51
2022/11/07 11:56:44;;;;;;;12.95;11.20;;;;;;;7.42;100.00;100354.18;1754939;80;21120;-53
2022/11/07 11:59:34;;;;;;;11.63;10.53;;;;;;;7.42;100.00;100351.50;1739465;79;21406;-51
2022/11/07 12:02:42;;;;;;;14.23;11.60;;;;;;;7.43;100.00;100348.79;1752634;80;21953;-51
2022/11/07 12:05:34;;;;;;;16.40;13.55;;;;;;;7.46;100.00;100354.08;1753597;80;21045;-51
2022/11/07 12:08:44;;;;;;;13.88;11.57;;;;;;;7.48;100.00;100352.70;1755987;79;21681;-50
2022/11/07 12:11:19;;;;;;;15.25;11.53;;;;;;;7.49;100.00;100346.40;1757136;80;21332;-52
2022/11/07 12:14:08;;;;;;;13.10;11.05;;;;;;;7.49;100.00;100343.72;1788204;78;21076;-51
2022/11/07 12:16:47;;;;;;;18.98;15.10;;;;;;;7.49;100.00;100339.24;1759901;79;21085;-52
2022/11/07 12:19:43;;;;;;;21.52;19.23;;;;;;;7.50;100.00;100341.00;1767084;79;21090;-51
2022/11/07 12:22:18;;;;;;;16.07;14.47;;;;;;;7.52;100.00;100341.85;1762214;79;21119;-51
2022/11/07 12:24:47;;;;;;;;;;;;;;;7.57;100.00;100341.75;1733767;80;21099;-52
2022/11/07 12:27:24;;;;;;;15.25;13.30;;;;;;;7.60;100.00;100340.30;1774271;79;20176;-53
2022/11/07 12:30:18;;;;;;;20.50;15.25;;;;;;;7.62;100.00;100338.93;1764741;79;21772;-51
2022/11/07 12:33:07;;;;;;;15.65;11.88;;;;;;;7.64;100.00;100330.40;1765146;79;21182;-51
2022/11/07 12:35:45;;;;;;;11.78;10.38;;;;;;;7.66;100.00;100337.91;1766770;79;21038;-51
2022/11/07 12:38:46;;;;;;;18.42;14.45;;;;;;;7.68;100.00;100340.09;1762440;79;21083;-50
2022/11/07 12:41:38;;;;;;;11.95;10.23;;;;;;;7.69;100.00;100333.82;1756321;79;21125;-52
2022/11/07 12:44:41;;;;;;;15.98;14.25;;;;;;;7.70;100.00;100334.24;1762694;79;21317;-51
2022/11/07 12:47:37;;;;;;;14.80;12.70;;;;;;;7.69;100.00;100336.04;1769745;79;21030;-52
2022/11/07 12:50:10;;;;;;;21.73;18.17;;;;;;;7.67;100.00;100324.94;1766143;79;21069;-51
2022/11/07 12:53:00;;;;;;;31.07;26.73;;;;;;;7.67;100.00;100328.95;1765345;79;21591;-52
2022/11/07 12:55:49;;;;;;;11.18;10.08;;;;;;;7.68;100.00;100324.02;1762420;79;21059;-52
2022/11/07 12:58:26;;;;;;;10.50;9.40;;;;;;;7.69;100.00;100323.98;1761737;79;21927;-51
2022/11/07 13:00:53;;;;;;;13.00;10.72;;;;;;;7.69;100.00;100322.64;1761558;79;21109;-51
2022/11/07 13:04:11;;;;;;;11.73;9.50;;;;;;;7.68;100.00;100319.54;1762013;79;21094;-52
2022/11/07 13:06:52;;;;;;;9.38;8.18;;;;;;;7.68;100.00;100313.30;1763499;79;21050;-51
2022/11/07 13:09:40;;;;;;;9.75;8.28;;;;;;;7.67;100.00;100319.58;1764183;79;21067;-50
2022/11/07 13:12:43;;;;;;;12.55;10.63;;;;;;;7.66;100.00;100319.16;1766347;79;22484;-52
2022/11/07 13:15:11;;;;;;;11.03;9.48;;;;;;;7.66;100.00;100317.36;1762438;79;21788;-50
2022/11/07 13:17:43;;;;;;;10.82;9.33;;;;;;;7.67;100.00;100315.55;1764368;79;21047;-51
2022/11/07 13:20:25;;;;;;;9.98;8.70;;;;;;;7.68;100.00;100313.30;1763119;79;21043;-51
2022/11/07 13:22:55;;;;;;;10.10;8.68;;;;;;;7.68;100.00;100309.28;1765618;79;21372;-51
2022/11/07 13:25:25;;;;;;;10.28;9.25;;;;;;;7.68;100.00;100309.28;1733831;79;23547;-51
2022/11/07 13:47:14;;;;;;;12.55;9.18;;;;;;;7.75;100.00;100308.19;1751933;78;71572;-65
2022/11/07 13:49:43;;;;;;;10.18;8.95;;;;;;;7.71;100.00;100302.52;1729608;81;21105;-65
2022/11/07 13:52:28;;;;;;;11.43;8.43;;;;;;;7.69;100.00;100306.56;1729801;81;22192;-65
2022/11/07 13:55:01;;;;;;;14.40;9.13;;;;;;;7.68;100.00;100302.13;1724703;81;21028;-65
2022/11/07 13:57:32;;;;;;;11.55;10.38;;;;;;;7.66;100.00;100302.63;1697336;82;22615;-65
2022/11/07 14:00:03;;;;;;;10.65;9.20;;;;;;;7.68;100.00;100301.24;1683127;83;21494;-65
2022/11/07 14:02:33;;;;;;;14.10;8.43;;;;;;;7.66;100.00;100301.28;1690756;83;21134;-65
2022/11/07 14:05:04;;;;;;;17.90;13.15;;;;;;;7.70;100.00;100301.63;1701473;82;21171;-65
2022/11/07 14:07:34;;;;;;;11.80;9.63;;;;;;;7.68;100.00;100294.09;1703211;83;21355;-65
2022/11/07 14:10:01;;;;;;;9.58;8.55;;;;;;;7.68;100.00;100295.88;1707839;83;21909;-65
2022/11/07 14:12:27;;;;;;;12.68;10.10;;;;;;;7.67;100.00;100299.02;1708458;83;21451;-65
2022/11/07 14:14:55;;;;;;;12.73;11.00;;;;;;;7.67;100.00;100299.48;1699183;82;22302;-65
2022/11/07 14:17:29;;;;;;;12.30;9.75;;;;;;;7.66;100.00;100297.72;1703833;82;21066;-65
2022/11/07 14:20:10;;;;;;;14.55;9.68;;;;;;;7.64;100.00;100306.28;1706862;82;21117;-65
2022/11/07 14:22:37;;;;;;;10.70;8.30;;;;;;;7.60;100.00;100300.12;1690641;83;21852;-66
2022/11/07 14:25:32;;;;;;;12.58;9.50;;;;;;;7.56;100.00;100296.66;1705689;83;21320;-66
2022/11/07 14:27:59;;;;;;;10.88;8.40;;;;;;;7.54;100.00;100291.80;1700320;82;21053;-65